createdAt,value
2017-11-26T00:02:09.595Z,3.40
2017-11-26T00:04:38.328Z,4.28
2017-11-26T00:07:07.804Z,3.50
2017-11-26T00:09:36.513Z,3.75
2017-11-26T00:12:06.007Z,3.40
2017-11-26T00:14:34.724Z,3.80
2017-11-26T00:17:03.486Z,3.58
2017-11-26T00:19:32.230Z,4.05
2017-11-26T00:22:00.925Z,3.30
2017-11-26T00:24:29.788Z,3.78
2017-11-26T00:26:58.497Z,3.95
2017-11-26T00:29:27.054Z,3.70
2017-11-26T00:31:55.766Z,3.95
2017-11-26T00:34:24.469Z,3.60
2017-11-26T00:36:53.232Z,3.40
2017-11-26T00:39:22.877Z,4.28
2017-11-26T00:41:51.608Z,3.92
2017-11-26T00:44:20.347Z,4.10
2017-11-26T00:46:49.173Z,4.07
2017-11-26T00:49:17.880Z,4.75
2017-11-26T00:51:46.613Z,4.72
2017-11-26T00:54:15.465Z,5.40
2017-11-26T00:56:44.201Z,5.25
2017-11-26T00:59:12.938Z,4.65
2017-11-26T01:01:42.406Z,5.80
2017-11-26T01:04:11.234Z,5.22
2017-11-26T01:06:40.704Z,5.90
2017-11-26T01:09:10.200Z,5.12
2017-11-26T01:11:38.908Z,5.87
2017-11-26T01:14:07.616Z,5.47
2017-11-26T01:16:37.246Z,5.85
2017-11-26T01:19:05.973Z,5.20
2017-11-26T01:21:34.717Z,6.68
2017-11-26T01:24:03.437Z,6.45
2017-11-26T01:26:32.160Z,6.07
2017-11-26T01:29:00.918Z,6.15
2017-11-26T01:31:29.623Z,6.87
2017-11-26T01:33:58.344Z,6.05
2017-11-26T01:36:27.808Z,5.40
2017-11-26T01:38:56.492Z,5.68
2017-11-26T01:41:25.285Z,5.55
2017-11-26T01:43:53.994Z,4.97
2017-11-26T01:46:23.027Z,5.97
2017-11-26T01:48:51.719Z,5.90
2017-11-26T01:51:20.231Z,7.20
2017-11-26T01:53:48.929Z,6.60
2017-11-26T01:56:17.456Z,5.75
2017-11-26T01:58:46.919Z,5.80
2017-11-26T02:01:15.623Z,5.20
2017-11-26T02:03:57.193Z,6.20
2017-11-26T02:06:25.625Z,5.75
2017-11-26T02:08:53.839Z,6.15
2017-11-26T02:11:22.373Z,6.35
2017-11-26T02:13:51.861Z,6.80
2017-11-26T02:16:20.563Z,6.30
2017-11-26T02:18:49.431Z,5.97
2017-11-26T02:21:18.129Z,5.82
2017-11-26T02:23:46.205Z,6.43
2017-11-26T02:26:15.006Z,5.45
2017-11-26T02:28:44.164Z,5.30
2017-11-26T02:31:23.763Z,5.12
2017-11-26T02:34:03.669Z,4.62
2017-11-26T02:36:31.761Z,4.68
2017-11-26T02:39:00.934Z,3.95
2017-11-26T02:41:29.363Z,3.90
2017-11-26T02:43:57.412Z,4.15
2017-11-26T02:46:25.781Z,3.75
2017-11-26T02:48:53.826Z,3.47
2017-11-26T02:51:22.604Z,3.60
2017-11-26T02:53:50.644Z,4.15
2017-11-26T02:56:19.017Z,3.50
2017-11-26T02:58:48.155Z,3.92
2017-11-26T03:01:17.064Z,4.15
2017-11-26T03:03:45.164Z,3.90
2017-11-26T03:06:13.859Z,3.35
2017-11-26T03:08:42.557Z,3.20
2017-11-26T03:11:12.036Z,4.15
2017-11-26T03:13:40.750Z,3.62
2017-11-26T03:16:10.461Z,4.22
2017-11-26T03:18:39.944Z,4.18
2017-11-26T03:21:08.629Z,4.87
2017-11-26T03:23:37.140Z,4.10
2017-11-26T03:26:06.592Z,4.12
2017-11-26T03:28:35.128Z,3.90
2017-11-26T03:31:04.625Z,3.83
2017-11-26T03:33:34.099Z,4.62
2017-11-26T03:36:02.806Z,4.32
2017-11-26T03:38:31.323Z,4.60
2017-11-26T03:41:00.033Z,3.80
2017-11-26T03:43:28.750Z,3.90
2017-11-26T03:45:57.496Z,4.32
2017-11-26T03:48:26.203Z,3.60
2017-11-26T03:50:55.191Z,2.90
2017-11-26T03:53:23.896Z,3.67
2017-11-26T03:55:51.936Z,3.50
2017-11-26T03:58:20.632Z,3.25
2017-11-26T04:00:49.366Z,3.30
2017-11-26T04:03:18.056Z,3.17
2017-11-26T04:05:46.752Z,2.85
2017-11-26T04:08:15.569Z,3.65
2017-11-26T04:10:44.269Z,3.25
2017-11-26T04:13:12.464Z,3.22
2017-11-26T04:15:40.503Z,3.30
2017-11-26T04:18:08.539Z,3.03
2017-11-26T04:20:36.928Z,3.47
2017-11-26T04:23:05.660Z,2.85
2017-11-26T04:25:34.985Z,2.90
2017-11-26T04:28:03.687Z,3.50
2017-11-26T04:30:32.531Z,3.65
2017-11-26T04:33:00.916Z,3.35
2017-11-26T04:35:29.303Z,3.65
2017-11-26T04:37:57.996Z,3.20
2017-11-26T04:40:26.703Z,2.80
2017-11-26T04:42:55.637Z,2.97
2017-11-26T04:45:25.120Z,4.07
2017-11-26T04:47:53.821Z,3.15
2017-11-26T04:50:22.535Z,3.45
2017-11-26T04:52:51.263Z,3.72
2017-11-26T04:55:19.981Z,3.70
2017-11-26T04:57:48.665Z,3.78
2017-11-26T05:00:17.059Z,4.57
2017-11-26T05:02:45.864Z,4.35
2017-11-26T05:05:15.021Z,3.37
2017-11-26T05:07:44.537Z,3.37
2017-11-26T05:10:13.233Z,4.43
2017-11-26T05:12:42.707Z,4.10
2017-11-26T05:15:11.446Z,4.72
2017-11-26T05:17:40.924Z,4.85
2017-11-26T05:20:09.629Z,4.15
2017-11-26T05:22:38.336Z,4.65
2017-11-26T05:25:07.840Z,4.45
2017-11-26T05:27:37.036Z,4.30
2017-11-26T05:30:05.847Z,4.05
2017-11-26T05:32:34.557Z,4.20
2017-11-26T05:35:02.922Z,4.05
2017-11-26T05:37:31.448Z,4.68
2017-11-26T05:39:59.956Z,4.53
2017-11-26T05:42:29.264Z,4.18
2017-11-26T05:44:58.545Z,4.72
2017-11-26T05:47:26.729Z,5.55
2017-11-26T05:49:56.192Z,4.10
2017-11-26T05:52:24.895Z,4.55
2017-11-26T05:54:53.706Z,4.12
2017-11-26T05:57:22.407Z,3.90
2017-11-26T05:59:51.552Z,4.05
2017-11-26T06:02:20.268Z,4.43
2017-11-26T06:04:48.961Z,4.30
2017-11-26T06:07:17.807Z,3.90
2017-11-26T06:09:46.708Z,4.50
2017-11-26T06:12:15.428Z,4.80
2017-11-26T06:14:44.140Z,5.05
2017-11-26T06:17:13.744Z,4.20
2017-11-26T06:19:43.216Z,5.45
2017-11-26T06:22:11.595Z,4.82
2017-11-26T06:24:40.097Z,4.85
2017-11-26T06:27:08.620Z,5.00
2017-11-26T06:29:37.264Z,4.80
2017-11-26T06:32:05.962Z,4.85
2017-11-26T06:34:35.525Z,5.20
2017-11-26T06:37:03.956Z,5.55
2017-11-26T06:39:33.532Z,5.28
2017-11-26T06:42:02.291Z,5.32
2017-11-26T06:44:31.165Z,5.60
2017-11-26T06:46:59.905Z,5.53
2017-11-26T06:49:28.615Z,4.62
2017-11-26T06:51:58.092Z,5.75
2017-11-26T06:54:26.785Z,5.82
2017-11-26T06:56:55.491Z,5.12
2017-11-26T06:59:24.216Z,5.68
2017-11-26T07:01:52.728Z,5.10
2017-11-26T07:04:21.436Z,4.65
2017-11-26T07:06:49.947Z,4.28
2017-11-26T07:09:19.659Z,5.00
2017-11-26T07:11:48.788Z,4.22
2017-11-26T07:14:17.504Z,4.20
2017-11-26T07:16:46.208Z,3.90
2017-11-26T07:19:14.976Z,3.95
2017-11-26T07:21:43.796Z,4.50
2017-11-26T07:24:12.271Z,4.40
2017-11-26T07:26:40.995Z,3.25
2017-11-26T07:29:09.571Z,3.90
2017-11-26T07:31:39.055Z,4.35
2017-11-26T07:34:07.933Z,3.67
2017-11-26T07:36:36.624Z,3.90
2017-11-26T07:39:04.655Z,3.80
2017-11-26T07:41:33.361Z,3.45
2017-11-26T07:44:02.137Z,3.20
2017-11-26T07:46:30.908Z,3.40
2017-11-26T07:48:59.686Z,3.78
2017-11-26T07:51:29.176Z,3.00
2017-11-26T07:53:58.629Z,3.22
2017-11-26T07:56:27.332Z,3.08
2017-11-26T07:58:56.040Z,2.80
2017-11-26T08:01:24.724Z,2.60
2017-11-26T08:03:53.424Z,2.92
2017-11-26T08:06:22.200Z,2.65
2017-11-26T08:08:50.904Z,2.20
2017-11-26T08:11:19.629Z,2.40
2017-11-26T08:13:48.341Z,2.40
2017-11-26T08:16:17.048Z,2.50
2017-11-26T08:18:45.940Z,2.47
2017-11-26T08:21:14.654Z,2.60
2017-11-26T08:23:44.119Z,2.28
2017-11-26T08:26:12.822Z,2.60
2017-11-26T08:28:41.543Z,2.40
2017-11-26T08:31:11.009Z,3.28
2017-11-26T08:33:39.905Z,3.17
2017-11-26T08:36:08.597Z,2.90
2017-11-26T08:38:37.291Z,2.45
2017-11-26T08:41:05.821Z,2.53
2017-11-26T08:43:34.356Z,2.45
2017-11-26T08:46:02.897Z,2.75
2017-11-26T08:48:31.423Z,2.33
2017-11-26T08:51:00.060Z,2.33
2017-11-26T08:53:28.571Z,2.50
2017-11-26T08:55:57.089Z,2.33
2017-11-26T08:58:25.609Z,2.47
2017-11-26T09:00:54.152Z,2.67
2017-11-26T09:03:22.662Z,2.65
2017-11-26T09:05:51.947Z,2.10
2017-11-26T09:08:35.339Z,2.30
2017-11-26T09:11:03.843Z,3.03
2017-11-26T09:13:32.376Z,2.20
2017-11-26T09:16:00.889Z,3.70
2017-11-26T09:18:29.428Z,2.62
2017-11-26T09:20:57.947Z,2.80
2017-11-26T09:23:26.667Z,3.22
2017-11-26T09:25:55.361Z,3.10
2017-11-26T09:28:24.085Z,2.65
2017-11-26T09:30:52.856Z,2.50
2017-11-26T09:33:21.572Z,2.40
2017-11-26T09:35:50.312Z,2.92
2017-11-26T09:38:19.025Z,2.15
2017-11-26T09:40:48.540Z,2.40
2017-11-26T09:43:17.737Z,2.22
2017-11-26T09:45:47.209Z,2.60
2017-11-26T09:48:15.942Z,2.60
2017-11-26T09:50:44.305Z,3.35
2017-11-26T09:53:13.792Z,2.12
2017-11-26T09:55:42.510Z,2.40
2017-11-26T09:58:11.216Z,2.33
2017-11-26T10:00:39.917Z,2.28
2017-11-26T10:03:08.616Z,2.15
2017-11-26T10:05:37.313Z,2.20
2017-11-26T10:08:06.103Z,2.05
2017-11-26T10:10:34.802Z,1.87
2017-11-26T10:13:03.532Z,2.60
2017-11-26T10:15:32.227Z,2.70
2017-11-26T10:18:00.940Z,2.22
2017-11-26T10:20:29.631Z,2.20
2017-11-26T10:22:58.476Z,2.40
2017-11-26T10:25:27.175Z,2.60
2017-11-26T10:27:56.025Z,3.50
2017-11-26T10:30:24.469Z,2.40
2017-11-26T10:32:53.175Z,2.17
2017-11-26T10:35:22.087Z,2.33
2017-11-26T10:37:50.525Z,2.63
2017-11-26T10:40:19.232Z,2.70
2017-11-26T10:42:47.928Z,3.50
2017-11-26T10:45:15.980Z,2.92
2017-11-26T10:47:44.380Z,2.60
2017-11-26T10:50:12.424Z,3.05
2017-11-26T10:52:40.471Z,3.03
2017-11-26T10:55:08.632Z,2.25
2017-11-26T10:57:37.448Z,2.67
2017-11-26T11:00:06.156Z,2.50
2017-11-26T11:02:34.233Z,2.90
2017-11-26T11:05:02.273Z,2.55
2017-11-26T11:07:30.346Z,2.53
2017-11-26T11:09:58.714Z,2.97
2017-11-26T11:12:28.379Z,2.78
2017-11-26T11:14:56.793Z,3.25
2017-11-26T11:17:26.307Z,2.83
2017-11-26T11:19:55.507Z,3.50
2017-11-26T11:22:24.328Z,3.55
2017-11-26T11:24:52.694Z,3.62
2017-11-26T11:27:21.457Z,6.50
2017-11-26T11:29:50.243Z,7.00
2017-11-26T11:32:19.732Z,9.93
2017-11-26T11:34:48.449Z,7.95
2017-11-26T11:37:17.912Z,4.10
2017-11-26T11:39:46.633Z,3.87
2017-11-26T11:42:15.331Z,3.72
2017-11-26T11:44:44.813Z,3.55
2017-11-26T11:47:13.547Z,3.53
2017-11-26T11:49:43.217Z,3.53
2017-11-26T11:52:11.745Z,3.80
2017-11-26T11:54:39.788Z,4.10
2017-11-26T11:57:08.943Z,3.22
2017-11-26T11:59:37.001Z,2.95
2017-11-26T12:02:05.073Z,3.33
2017-11-26T12:04:34.296Z,2.95
2017-11-26T12:07:02.697Z,3.42
2017-11-26T12:09:30.745Z,3.35
2017-11-26T12:11:59.117Z,3.10
2017-11-26T12:14:27.505Z,3.33
2017-11-26T12:16:55.561Z,2.85
2017-11-26T12:19:23.965Z,3.00
2017-11-26T12:21:52.333Z,2.87
2017-11-26T12:24:20.204Z,2.05
2017-11-26T12:26:48.712Z,2.50
2017-11-26T12:29:16.686Z,2.62
2017-11-26T12:31:44.889Z,2.70
2017-11-26T12:34:13.791Z,2.42
2017-11-26T12:36:42.361Z,2.08
2017-11-26T12:39:11.508Z,2.62
2017-11-26T12:41:40.233Z,2.20
2017-11-26T12:44:09.373Z,2.00
2017-11-26T12:46:37.469Z,2.40
2017-11-26T12:49:06.009Z,2.28
2017-11-26T12:51:34.416Z,2.50
2017-11-26T12:54:02.794Z,1.65
2017-11-26T12:56:31.183Z,2.05
2017-11-26T12:58:59.256Z,1.92
2017-11-26T13:01:27.653Z,2.20
2017-11-26T13:03:55.683Z,2.33
2017-11-26T13:06:24.045Z,2.40
2017-11-26T13:08:52.872Z,2.05
2017-11-26T13:11:21.856Z,1.90
2017-11-26T13:13:49.913Z,1.75
2017-11-26T13:16:17.963Z,1.92
2017-11-26T13:18:46.820Z,1.60
2017-11-26T13:21:14.755Z,2.00
2017-11-26T13:23:42.823Z,2.28
2017-11-26T13:26:11.210Z,2.10
2017-11-26T13:28:39.072Z,2.10
2017-11-26T13:31:07.104Z,1.75
2017-11-26T13:33:35.156Z,3.30
2017-11-26T13:36:03.009Z,2.50
2017-11-26T13:38:31.054Z,2.00
2017-11-26T13:40:59.108Z,2.20
2017-11-26T13:43:27.971Z,2.15
2017-11-26T13:45:56.028Z,2.28
2017-11-26T13:48:24.577Z,1.77
2017-11-26T13:50:52.768Z,2.00
2017-11-26T13:53:20.992Z,1.73
2017-11-26T13:55:49.064Z,2.30
2017-11-26T13:58:17.116Z,1.75
2017-11-26T14:00:45.176Z,2.00
2017-11-26T14:03:13.259Z,1.83
2017-11-26T14:05:41.397Z,2.03
2017-11-26T14:08:09.454Z,2.50
2017-11-26T14:10:38.289Z,1.83
2017-11-26T14:13:06.329Z,2.00
2017-11-26T14:15:34.370Z,2.03
2017-11-26T14:18:02.513Z,1.87
2017-11-26T14:20:30.904Z,1.55
2017-11-26T14:22:59.046Z,2.17
2017-11-26T14:25:27.090Z,1.95
2017-11-26T14:27:55.161Z,2.15
2017-11-26T14:30:24.635Z,2.95
2017-11-26T14:32:53.354Z,1.85
2017-11-26T14:35:22.687Z,2.08
2017-11-26T14:37:50.737Z,1.62
2017-11-26T14:40:18.811Z,2.45
2017-11-26T14:42:46.869Z,1.65
2017-11-26T14:45:15.706Z,2.05
2017-11-26T14:47:43.740Z,2.05
2017-11-26T14:50:12.681Z,1.75
2017-11-26T14:52:40.841Z,2.35
2017-11-26T14:55:09.088Z,1.73
2017-11-26T14:57:37.890Z,1.95
2017-11-26T15:00:05.945Z,1.73
2017-11-26T15:02:34.854Z,2.25
2017-11-26T15:05:02.721Z,1.80
2017-11-26T15:07:30.637Z,2.10
2017-11-26T15:09:59.009Z,2.05
2017-11-26T15:12:27.077Z,1.92
2017-11-26T15:14:55.153Z,2.25
2017-11-26T15:17:23.243Z,2.15
2017-11-26T15:19:51.298Z,2.35
2017-11-26T15:22:19.495Z,2.00
2017-11-26T15:24:47.547Z,2.50
2017-11-26T15:27:15.707Z,1.80
2017-11-26T15:29:43.874Z,2.17
2017-11-26T15:32:11.943Z,1.92
2017-11-26T15:34:39.990Z,2.25
2017-11-26T15:37:08.837Z,2.03
2017-11-26T15:39:36.907Z,2.30
2017-11-26T15:42:04.977Z,2.08
2017-11-26T15:44:33.084Z,2.47
2017-11-26T15:47:01.161Z,2.42
2017-11-26T15:49:29.987Z,2.17
2017-11-26T15:51:58.697Z,2.65
2017-11-26T15:54:26.770Z,2.53
2017-11-26T15:56:55.136Z,2.50
2017-11-26T15:59:23.532Z,2.50
2017-11-26T16:01:51.569Z,3.62
2017-11-26T16:04:19.796Z,2.15
2017-11-26T16:06:47.969Z,2.10
2017-11-26T16:09:16.352Z,2.15
2017-11-26T16:11:44.800Z,2.00
2017-11-26T16:14:12.893Z,2.28
2017-11-26T16:16:40.945Z,2.83
2017-11-26T16:19:09.337Z,2.40
2017-11-26T16:21:37.718Z,2.40
2017-11-26T16:24:05.769Z,2.55
2017-11-26T16:26:34.141Z,2.67
2017-11-26T16:29:02.232Z,2.92
2017-11-26T16:31:30.607Z,2.92
2017-11-26T16:33:59.082Z,2.90
2017-11-26T16:36:27.819Z,3.08
2017-11-26T16:38:56.295Z,2.35
2017-11-26T16:41:24.360Z,3.37
2017-11-26T16:43:52.437Z,2.50
2017-11-26T16:46:20.841Z,2.40
2017-11-26T16:48:48.697Z,3.20
2017-11-26T16:51:16.884Z,3.40
2017-11-26T16:53:45.131Z,2.80
2017-11-26T16:56:12.989Z,3.20
2017-11-26T16:58:41.156Z,3.28
2017-11-26T17:01:09.741Z,3.10
2017-11-26T17:03:38.147Z,3.37
2017-11-26T17:06:06.380Z,3.37
2017-11-26T17:08:34.451Z,3.10
2017-11-26T17:11:02.865Z,2.10
2017-11-26T17:13:31.209Z,2.28
2017-11-26T17:15:59.763Z,2.90
2017-11-26T17:18:28.490Z,2.60
2017-11-26T17:20:57.208Z,3.15
2017-11-26T17:23:25.248Z,2.72
2017-11-26T17:25:53.300Z,2.95
2017-11-26T17:28:22.453Z,3.53
2017-11-26T17:30:50.700Z,2.50
2017-11-26T17:33:19.454Z,3.08
2017-11-26T17:35:47.887Z,3.10
2017-11-26T17:38:15.914Z,2.72
2017-11-26T17:40:44.747Z,2.80
2017-11-26T17:43:13.086Z,3.33
2017-11-26T17:45:41.908Z,3.90
2017-11-26T17:48:10.001Z,3.40
2017-11-26T17:50:38.457Z,3.75
2017-11-26T17:53:06.498Z,3.78
2017-11-26T17:55:35.441Z,3.85
2017-11-26T17:58:03.912Z,3.80
2017-11-26T18:00:32.907Z,3.70
2017-11-26T18:03:01.264Z,3.37
2017-11-26T18:05:30.019Z,3.58
2017-11-26T18:07:58.572Z,3.78
2017-11-26T18:10:27.314Z,3.10
2017-11-26T18:12:56.817Z,3.30
2017-11-26T18:15:25.986Z,3.55
2017-11-26T18:17:54.781Z,3.90
2017-11-26T18:20:23.427Z,3.78
2017-11-26T18:22:52.140Z,3.90
2017-11-26T18:25:20.548Z,4.18
2017-11-26T18:27:49.257Z,4.47
2017-11-26T18:30:18.749Z,4.87
2017-11-26T18:32:47.507Z,4.85
2017-11-26T18:35:16.277Z,5.40
2017-11-26T18:37:45.124Z,5.25
2017-11-26T18:40:14.611Z,4.93
2017-11-26T18:42:43.376Z,4.50
2017-11-26T18:45:12.077Z,4.15
2017-11-26T18:47:40.894Z,5.40
2017-11-26T18:50:09.592Z,5.65
2017-11-26T18:52:39.508Z,5.47
2017-11-26T18:55:08.226Z,5.70
2017-11-26T18:57:36.939Z,5.37
2017-11-26T19:00:05.649Z,6.12
2017-11-26T19:02:34.404Z,6.30
2017-11-26T19:05:03.113Z,7.15
2017-11-26T19:07:31.849Z,7.70
2017-11-26T19:10:00.597Z,7.55
2017-11-26T19:12:29.351Z,7.43
2017-11-26T19:14:58.103Z,6.78
2017-11-26T19:17:27.596Z,6.65
2017-11-26T19:19:56.323Z,6.80
2017-11-26T19:22:25.185Z,6.10
2017-11-26T19:24:53.875Z,6.30
2017-11-26T19:27:23.377Z,7.25
2017-11-26T19:29:52.087Z,6.05
2017-11-26T19:32:20.805Z,5.62
2017-11-26T19:34:49.524Z,5.47
2017-11-26T19:37:17.896Z,5.15
2017-11-26T19:39:46.608Z,6.00
2017-11-26T19:42:16.096Z,5.37
2017-11-26T19:44:44.805Z,5.15
2017-11-26T19:47:13.968Z,4.93
2017-11-26T19:49:42.676Z,5.22
2017-11-26T19:52:12.677Z,4.95
2017-11-26T19:54:41.090Z,5.95
2017-11-26T19:57:10.387Z,6.35
2017-11-26T19:59:39.695Z,5.55
2017-11-26T20:02:09.165Z,5.28
2017-11-26T20:04:37.901Z,6.60
2017-11-26T20:07:06.453Z,4.80
2017-11-26T20:09:35.232Z,6.07
2017-11-26T20:12:03.782Z,5.57
2017-11-26T20:14:32.634Z,4.85
2017-11-26T20:17:02.141Z,5.07
2017-11-26T20:19:31.637Z,5.70
2017-11-26T20:22:00.379Z,5.55
2017-11-26T20:24:29.124Z,5.37
2017-11-26T20:26:58.613Z,6.32
2017-11-26T20:29:27.132Z,5.53
2017-11-26T20:31:55.868Z,5.20
2017-11-26T20:34:24.580Z,5.62
2017-11-26T20:36:53.330Z,5.75
2017-11-26T20:39:22.185Z,5.85
2017-11-26T20:41:50.946Z,5.60
2017-11-26T20:44:19.851Z,5.93
2017-11-26T20:46:49.345Z,4.93
2017-11-26T20:49:18.116Z,5.55
2017-11-26T20:51:46.871Z,4.90
2017-11-26T20:54:15.734Z,5.75
2017-11-26T20:56:45.377Z,3.92
2017-11-26T20:59:14.130Z,4.18
2017-11-26T21:01:43.636Z,4.78
2017-11-26T21:04:13.551Z,4.53
2017-11-26T21:06:42.749Z,4.87
2017-11-26T21:09:11.949Z,5.32
2017-11-26T21:11:41.151Z,5.10
2017-11-26T21:14:10.350Z,5.12
2017-11-26T21:16:39.352Z,5.30
2017-11-26T21:19:08.549Z,4.85
2017-11-26T21:21:37.539Z,5.68
2017-11-26T21:24:06.536Z,5.53
2017-11-26T21:26:35.524Z,5.30
2017-11-26T21:29:04.519Z,5.20
2017-11-26T21:31:33.717Z,5.43
2017-11-26T21:34:02.918Z,4.65
2017-11-26T21:36:32.221Z,4.87
2017-11-26T21:39:01.425Z,5.20
2017-11-26T21:41:30.563Z,5.25
2017-11-26T21:44:00.533Z,5.03
2017-11-26T21:46:29.747Z,5.95
2017-11-26T21:48:58.932Z,5.90
2017-11-26T21:51:28.132Z,6.50
2017-11-26T21:53:57.334Z,5.40
2017-11-26T21:56:26.530Z,5.03
2017-11-26T21:58:55.626Z,5.78
2017-11-26T22:01:24.829Z,4.87
2017-11-26T22:03:54.026Z,4.85
2017-11-26T22:06:23.235Z,5.18
2017-11-26T22:08:52.322Z,4.60
2017-11-26T22:11:21.310Z,4.53
2017-11-26T22:13:50.796Z,4.90
2017-11-26T22:16:19.530Z,5.15
2017-11-26T22:18:48.253Z,5.57
2017-11-26T22:21:17.096Z,4.95
2017-11-26T22:23:46.555Z,5.40
2017-11-26T22:26:14.617Z,4.30
2017-11-26T22:28:43.344Z,5.78
2017-11-26T22:31:12.071Z,5.62
2017-11-26T22:33:40.847Z,4.93
2017-11-26T22:36:09.567Z,5.18
2017-11-26T22:38:38.277Z,5.70
2017-11-26T22:41:06.997Z,5.03
2017-11-26T22:43:36.532Z,5.05
2017-11-26T22:46:05.389Z,4.97
2017-11-26T22:48:34.113Z,4.78
2017-11-26T22:51:02.832Z,4.40
2017-11-26T22:53:31.660Z,4.55
2017-11-26T22:56:01.114Z,5.85
2017-11-26T22:58:29.772Z,4.80
2017-11-26T23:00:58.605Z,4.70
2017-11-26T23:03:27.336Z,4.80
2017-11-26T23:05:56.821Z,5.47
2017-11-26T23:08:25.517Z,4.20
2017-11-26T23:10:54.239Z,4.75
2017-11-26T23:13:22.964Z,4.50
2017-11-26T23:15:51.690Z,4.62
2017-11-26T23:18:21.148Z,4.37
2017-11-26T23:20:49.870Z,4.93
2017-11-26T23:23:19.374Z,4.10
2017-11-26T23:25:48.077Z,4.80
2017-11-26T23:28:17.548Z,4.25
2017-11-26T23:30:46.260Z,3.90
2017-11-26T23:33:14.958Z,4.97
2017-11-26T23:35:44.444Z,4.60
2017-11-26T23:38:13.181Z,5.22
2017-11-26T23:40:41.918Z,4.22
2017-11-26T23:43:10.617Z,4.72
2017-11-26T23:45:40.093Z,4.50
2017-11-26T23:48:08.837Z,4.65
2017-11-26T23:50:38.314Z,4.90
2017-11-26T23:53:07.023Z,4.57
2017-11-26T23:55:36.493Z,4.80
2017-11-26T23:58:05.223Z,5.00
